createdAt,value
2022-09-20T00:01:38.694Z,12.80
2022-09-20T00:05:44.013Z,11.93
2022-09-20T00:08:16.996Z,13.18
2022-09-20T00:10:45.361Z,12.63
2022-09-20T00:13:14.605Z,14.30
2022-09-20T00:15:47.002Z,14.15
2022-09-20T00:18:15.217Z,17.55
2022-09-20T00:20:48.310Z,14.77
2022-09-20T00:23:17.139Z,21.80
2022-09-20T00:25:45.384Z,18.55
2022-09-20T00:28:13.767Z,19.90
2022-09-20T00:30:42.064Z,16.45
2022-09-20T00:33:10.646Z,14.25
2022-09-20T00:35:38.718Z,14.48
2022-09-20T00:38:06.962Z,12.68
2022-09-20T00:40:35.320Z,14.65
2022-09-20T00:43:03.902Z,15.23
2022-09-20T00:45:32.315Z,15.77
2022-09-20T00:48:00.368Z,13.38
2022-09-20T00:50:36.016Z,11.20
2022-09-20T00:53:25.740Z,11.20
2022-09-20T00:56:11.958Z,11.13
2022-09-20T00:58:51.006Z,10.73
2022-09-20T01:01:19.520Z,11.00
2022-09-20T01:03:48.456Z,10.25
2022-09-20T01:06:17.541Z,11.50
2022-09-20T01:08:50.314Z,11.25
2022-09-20T01:11:18.962Z,12.23
2022-09-20T01:13:47.105Z,12.52
2022-09-20T01:16:17.327Z,19.55
2022-09-20T01:18:46.641Z,17.88
2022-09-20T01:21:16.197Z,16.55
2022-09-20T01:24:05.655Z,18.90
2022-09-20T01:26:52.113Z,22.00
2022-09-20T01:29:32.602Z,16.23
2022-09-20T01:32:06.030Z,12.57
2022-09-20T01:34:43.112Z,11.38
2022-09-20T01:37:28.801Z,11.20
2022-09-20T01:40:06.835Z,13.07
2022-09-20T01:42:44.034Z,14.73
2022-09-20T01:45:32.794Z,15.63
2022-09-20T01:48:21.842Z,15.27
2022-09-20T01:51:04.824Z,13.48
2022-09-20T01:53:39.229Z,14.23
2022-09-20T01:56:35.237Z,12.55
2022-09-20T01:59:31.050Z,11.73
2022-09-20T02:02:36.809Z,11.38
2022-09-20T02:05:38.217Z,11.43
2022-09-20T02:08:29.729Z,14.30
2022-09-20T02:11:09.955Z,11.98
2022-09-20T02:13:41.104Z,15.65
2022-09-20T02:16:34.468Z,14.25
2022-09-20T02:19:08.734Z,11.68
2022-09-20T02:22:02.681Z,13.73
2022-09-20T02:24:40.135Z,14.80
2022-09-20T02:27:48.589Z,15.25
2022-09-20T02:30:53.427Z,15.10
2022-09-20T02:33:51.343Z,13.20
2022-09-20T02:36:25.429Z,11.57
2022-09-20T02:39:20.810Z,12.52
2022-09-20T02:42:04.331Z,13.65
2022-09-20T02:44:50.826Z,12.80
2022-09-20T02:47:40.061Z,19.98
2022-09-20T02:50:23.975Z,13.77
2022-09-20T02:53:22.971Z,13.18
2022-09-20T02:56:14.333Z,13.90
2022-09-20T02:59:05.302Z,13.40
2022-09-20T03:01:46.321Z,12.10
2022-09-20T03:04:35.635Z,11.80
2022-09-20T03:07:26.504Z,12.00
2022-09-20T03:09:57.429Z,12.52
2022-09-20T03:12:53.217Z,12.23
2022-09-20T03:15:36.420Z,12.35
2022-09-20T03:18:20.335Z,10.88
2022-09-20T03:21:09.359Z,11.48
2022-09-20T03:24:18.715Z,10.90
2022-09-20T03:27:19.272Z,10.50
2022-09-20T03:30:10.384Z,10.32
2022-09-20T03:32:56.434Z,11.77
2022-09-20T03:35:46.885Z,11.63
2022-09-20T03:38:41.618Z,11.35
2022-09-20T03:41:20.242Z,10.90
2022-09-20T03:43:48.448Z,10.80
2022-09-20T03:46:27.356Z,11.38
2022-09-20T03:49:04.619Z,11.43
2022-09-20T03:52:04.988Z,11.73
2022-09-20T03:54:45.545Z,12.93
2022-09-20T03:57:25.984Z,12.07
2022-09-20T04:00:00.433Z,11.30
2022-09-20T04:02:44.590Z,12.07
2022-09-20T04:05:30.996Z,11.90
2022-09-20T04:08:10.677Z,11.50
2022-09-20T04:11:17.236Z,11.80
2022-09-20T04:13:57.129Z,10.75
2022-09-20T04:16:36.382Z,11.05
2022-09-20T04:19:33.285Z,11.55
2022-09-20T04:22:02.904Z,10.63
2022-09-20T04:24:31.023Z,10.95
2022-09-20T04:27:12.937Z,11.43
2022-09-20T04:29:50.090Z,11.05
2022-09-20T04:32:48.794Z,11.50
2022-09-20T04:35:44.658Z,11.98
2022-09-20T04:38:18.061Z,10.98
2022-09-20T04:41:04.682Z,10.90
2022-09-20T04:44:20.859Z,11.77
2022-09-20T04:47:08.011Z,11.05
2022-09-20T04:49:54.644Z,11.00
2022-09-20T04:52:41.397Z,11.88
2022-09-20T04:55:36.375Z,12.63
2022-09-20T04:58:38.213Z,10.90
2022-09-20T05:01:32.158Z,14.07
2022-09-20T05:04:37.366Z,13.07
2022-09-20T05:07:28.553Z,13.93
2022-09-20T05:10:20.937Z,12.20
2022-09-20T05:13:18.587Z,12.85
2022-09-20T05:16:11.788Z,12.05
2022-09-20T05:19:17.886Z,14.10
2022-09-20T05:21:45.947Z,11.50
2022-09-20T05:24:52.277Z,13.35
2022-09-20T05:27:29.517Z,12.63
2022-09-20T05:30:18.039Z,13.75
2022-09-20T05:33:10.282Z,12.85
2022-09-20T05:35:53.541Z,13.80
2022-09-20T05:38:30.534Z,15.52
2022-09-20T05:41:31.087Z,14.43
2022-09-20T05:43:59.211Z,15.25
2022-09-20T05:46:57.747Z,15.38
2022-09-20T05:49:50.760Z,17.50
2022-09-20T05:52:52.383Z,15.35
2022-09-20T05:55:52.319Z,13.30
2022-09-20T05:58:48.094Z,13.18
2022-09-20T06:01:27.664Z,14.00
2022-09-20T06:04:23.107Z,13.65
2022-09-20T06:07:16.174Z,9.82
2022-09-20T06:09:53.631Z,13.57
2022-09-20T06:12:43.639Z,8.48
2022-09-20T06:15:14.791Z,8.02
2022-09-20T06:18:03.699Z,8.00
2022-09-20T06:20:55.808Z,8.95
2022-09-20T06:23:24.094Z,8.77
2022-09-20T06:26:02.572Z,9.15
2022-09-20T06:28:43.386Z,9.52
2022-09-20T06:31:12.155Z,7.65
2022-09-20T06:33:50.662Z,6.40
2022-09-20T06:36:21.912Z,6.47
2022-09-20T06:39:15.280Z,8.85
2022-09-20T06:41:43.964Z,7.97
2022-09-20T06:44:12.657Z,6.40
2022-09-20T06:46:40.877Z,5.57
2022-09-20T06:49:09.016Z,5.55
2022-09-20T06:51:39.497Z,6.50
2022-09-20T06:54:12.985Z,6.78
2022-09-20T06:56:41.303Z,8.05
2022-09-20T06:59:09.362Z,9.48
2022-09-20T07:01:38.278Z,9.32
2022-09-20T07:04:06.946Z,8.02
2022-09-20T07:06:35.333Z,6.55
2022-09-20T07:09:03.687Z,5.90
2022-09-20T07:11:32.144Z,6.20
2022-09-20T07:14:00.422Z,4.90
2022-09-20T07:16:28.618Z,8.30
2022-09-20T07:18:57.092Z,5.65
2022-09-20T07:21:25.432Z,6.63
2022-09-20T07:23:53.664Z,7.85
2022-09-20T07:26:23.250Z,7.50
2022-09-20T07:28:51.719Z,7.20
2022-09-20T07:31:21.593Z,6.78
2022-09-20T07:33:50.016Z,6.20
2022-09-20T07:36:18.883Z,5.43
2022-09-20T07:38:52.477Z,5.40
2022-09-20T07:41:22.015Z,4.40
2022-09-20T07:43:50.266Z,5.78
2022-09-20T07:46:18.594Z,6.15
2022-09-20T07:48:46.810Z,5.50
2022-09-20T07:51:15.035Z,5.78
2022-09-20T07:53:43.440Z,6.43
2022-09-20T07:56:14.960Z,6.70
2022-09-20T07:58:44.894Z,6.53
2022-09-20T08:01:14.805Z,5.78
2022-09-20T08:03:43.155Z,5.70
2022-09-20T08:06:13.272Z,5.55
2022-09-20T08:08:41.688Z,5.50
2022-09-20T08:11:14.191Z,6.03
2022-09-20T08:16:42.337Z,5.90
2022-09-20T08:19:15.210Z,5.57
2022-09-20T08:21:43.615Z,6.10
2022-09-20T08:24:12.185Z,5.88
2022-09-20T08:26:40.623Z,6.32
2022-09-20T08:29:09.105Z,5.75
2022-09-20T08:31:39.395Z,6.75
2022-09-20T08:34:09.409Z,7.32
2022-09-20T08:36:41.225Z,8.00
2022-09-20T08:42:12.704Z,7.43
2022-09-20T08:45:02.062Z,7.85
2022-09-20T08:47:45.356Z,7.78
2022-09-20T08:50:17.523Z,6.43
2022-09-20T08:52:48.756Z,7.03
2022-09-20T08:55:27.065Z,7.05
2022-09-20T08:57:57.553Z,7.10
2022-09-20T09:00:32.084Z,7.22
2022-09-20T09:03:06.802Z,7.38
2022-09-20T09:05:48.599Z,7.50
2022-09-20T09:08:21.117Z,8.32
2022-09-20T09:10:58.625Z,9.18
2022-09-20T09:13:30.208Z,8.73
2022-09-20T09:16:02.868Z,9.65
2022-09-20T09:18:38.085Z,8.15
2022-09-20T09:21:09.312Z,8.85
2022-09-20T09:24:01.985Z,10.88
2022-09-20T09:26:37.398Z,9.32
2022-09-20T09:29:20.276Z,7.57
2022-09-20T09:31:51.690Z,6.25
2022-09-20T09:34:30.551Z,5.95
2022-09-20T09:36:59.609Z,8.27
2022-09-20T09:39:33.614Z,8.88
2022-09-20T09:42:19.643Z,9.77
2022-09-20T09:44:47.943Z,8.68
2022-09-20T09:47:29.657Z,9.85
2022-09-20T09:50:01.905Z,7.47
2022-09-20T09:52:33.294Z,6.57
2022-09-20T09:55:05.874Z,6.38
2022-09-20T09:57:59.191Z,7.22
2022-09-20T10:00:28.986Z,6.72
2022-09-20T10:03:06.350Z,6.38
2022-09-20T10:06:03.746Z,7.32
2022-09-20T10:08:31.870Z,6.55
2022-09-20T10:11:15.745Z,5.53
2022-09-20T10:13:55.329Z,6.50
2022-09-20T10:16:38.917Z,6.90
2022-09-20T10:19:07.281Z,6.38
2022-09-20T10:22:00.373Z,8.57
2022-09-20T10:24:47.339Z,7.63
2022-09-20T10:27:39.811Z,6.50
2022-09-20T10:30:40.436Z,6.32
2022-09-20T10:33:25.825Z,6.57
2022-09-20T10:35:58.411Z,7.15
2022-09-20T10:38:34.273Z,5.18
2022-09-20T10:41:09.584Z,6.50
2022-09-20T10:43:58.283Z,7.22
2022-09-20T10:46:57.892Z,6.15
2022-09-20T10:49:53.816Z,7.63
2022-09-20T10:52:44.652Z,6.88
2022-09-20T10:55:22.074Z,8.57
2022-09-20T10:58:05.284Z,7.20
2022-09-20T11:00:49.010Z,7.85
2022-09-20T11:03:51.065Z,7.28
2022-09-20T11:06:50.470Z,6.97
2022-09-20T11:09:23.415Z,8.73
2022-09-20T11:11:56.437Z,8.18
2022-09-20T11:14:34.217Z,8.30
2022-09-20T11:17:14.760Z,8.70
2022-09-20T11:20:11.054Z,7.78
2022-09-20T11:22:44.447Z,7.78
2022-09-20T11:25:39.349Z,8.57
2022-09-20T11:28:23.022Z,7.35
2022-09-20T11:31:01.676Z,8.15
2022-09-20T11:33:41.612Z,8.00
2022-09-20T11:36:22.023Z,8.20
2022-09-20T11:39:02.636Z,8.90
2022-09-20T11:41:32.450Z,8.50
2022-09-20T11:44:12.580Z,8.88
2022-09-20T11:46:52.473Z,8.93
2022-09-20T11:49:30.104Z,8.52
2022-09-20T11:52:28.216Z,7.95
2022-09-20T11:55:11.374Z,8.27
2022-09-20T11:57:40.322Z,7.63
2022-09-20T12:00:09.454Z,7.38
2022-09-20T12:02:52.155Z,7.80
2022-09-20T12:05:35.127Z,8.05
2022-09-20T12:08:25.769Z,7.45
2022-09-20T12:11:10.262Z,7.90
2022-09-20T12:13:42.440Z,7.40
2022-09-20T12:16:35.414Z,9.05
2022-09-20T12:19:42.303Z,8.07
2022-09-20T12:22:10.720Z,8.68
2022-09-20T12:24:45.168Z,7.28
2022-09-20T12:27:29.312Z,8.13
2022-09-20T12:30:18.415Z,8.45
2022-09-20T12:32:51.348Z,8.13
2022-09-20T12:35:39.906Z,9.18
2022-09-20T12:38:18.494Z,8.05
2022-09-20T12:41:07.634Z,7.68
2022-09-20T12:43:39.911Z,7.68
2022-09-20T12:46:18.034Z,8.90
2022-09-20T12:48:46.574Z,8.07
2022-09-20T12:51:25.381Z,7.38
2022-09-20T12:54:03.410Z,7.85
2022-09-20T12:56:33.031Z,7.50
2022-09-20T12:59:02.740Z,7.72
2022-09-20T13:01:34.501Z,8.02
2022-09-20T13:04:41.984Z,7.97
2022-09-20T13:07:41.294Z,12.80
2022-09-20T13:10:33.411Z,9.05
2022-09-20T13:13:29.216Z,8.85
2022-09-20T13:15:58.271Z,7.40
2022-09-20T13:18:27.864Z,8.35
2022-09-20T13:20:58.435Z,8.73
2022-09-20T13:23:30.090Z,9.63
2022-09-20T13:25:59.128Z,7.20
2022-09-20T13:28:31.072Z,8.75
2022-09-20T13:31:24.834Z,7.88
2022-09-20T13:33:53.625Z,6.88
2022-09-20T13:36:28.897Z,8.68
2022-09-20T13:38:58.314Z,8.55
2022-09-20T13:41:29.434Z,8.75
2022-09-20T13:43:57.849Z,9.23
2022-09-20T13:46:32.176Z,8.15
2022-09-20T13:49:20.882Z,8.25
2022-09-20T13:51:49.990Z,8.77
2022-09-20T13:54:19.699Z,8.57
2022-09-20T13:56:48.609Z,13.57
2022-09-20T13:59:19.374Z,9.23
2022-09-20T14:01:58.724Z,10.93
2022-09-20T14:04:30.016Z,10.80
2022-09-20T14:07:00.382Z,8.75
2022-09-20T14:09:33.530Z,9.13
2022-09-20T14:13:36.127Z,9.10
2022-09-20T14:16:05.172Z,9.00
2022-09-20T14:18:35.290Z,8.63
2022-09-20T14:21:06.703Z,8.90
2022-09-20T14:24:01.527Z,9.55
2022-09-20T14:26:34.127Z,8.13
2022-09-20T14:29:31.051Z,9.02
2022-09-20T14:32:03.627Z,9.00
2022-09-20T14:34:32.697Z,7.70
2022-09-20T14:37:10.476Z,8.63
2022-09-20T14:39:49.584Z,7.25
2022-09-20T14:42:43.009Z,6.72
2022-09-20T14:45:35.539Z,8.43
2022-09-20T14:48:16.442Z,6.68
2022-09-20T14:50:47.242Z,7.00
2022-09-20T14:53:25.079Z,7.32
2022-09-20T14:56:11.231Z,7.80
2022-09-20T14:59:05.344Z,8.10
2022-09-20T15:01:36.093Z,6.90
2022-09-20T15:04:33.707Z,7.13
2022-09-20T15:07:04.325Z,6.90
2022-09-20T15:09:33.267Z,6.72
2022-09-20T15:12:04.093Z,6.78
2022-09-20T15:14:37.229Z,7.47
2022-09-20T15:17:06.669Z,8.00
2022-09-20T15:19:35.048Z,7.13
2022-09-20T15:22:03.430Z,6.72
2022-09-20T15:24:32.253Z,6.82
2022-09-20T15:27:00.833Z,7.22
2022-09-20T15:29:34.327Z,7.20
2022-09-20T15:32:03.329Z,6.82
2022-09-20T15:34:31.888Z,6.95
2022-09-20T15:37:00.225Z,6.75
2022-09-20T15:39:29.183Z,6.05
2022-09-20T15:41:57.425Z,7.28
2022-09-20T15:44:25.922Z,7.20
2022-09-20T15:46:54.337Z,7.40
2022-09-20T15:49:22.557Z,8.25
2022-09-20T15:51:50.763Z,7.78
2022-09-20T15:54:19.140Z,6.55
2022-09-20T15:56:47.488Z,7.68
2022-09-20T15:59:15.834Z,6.40
2022-09-20T16:01:45.860Z,7.13
2022-09-20T16:04:16.912Z,7.03
2022-09-20T16:06:46.810Z,6.88
2022-09-20T16:09:15.420Z,7.35
2022-09-20T16:11:43.701Z,7.47
2022-09-20T16:14:12.034Z,7.07
2022-09-20T16:16:40.991Z,8.38
2022-09-20T16:19:11.432Z,7.88
2022-09-20T16:21:41.702Z,6.78
2022-09-20T16:24:11.171Z,7.63
2022-09-20T16:26:42.377Z,7.97
2022-09-20T16:29:10.776Z,8.25
2022-09-20T16:31:50.370Z,9.32
2022-09-20T16:34:27.134Z,7.85
2022-09-20T16:36:56.851Z,9.00
2022-09-20T16:39:26.487Z,7.82
2022-09-20T16:41:57.067Z,10.30
2022-09-20T16:44:25.627Z,9.38
2022-09-20T16:46:53.844Z,7.70
2022-09-20T16:49:22.227Z,8.43
2022-09-20T16:51:50.366Z,9.00
2022-09-20T16:54:18.905Z,7.82
2022-09-20T16:56:49.970Z,9.45
2022-09-20T16:59:20.646Z,8.70
2022-09-20T17:01:49.784Z,8.35
2022-09-20T17:04:19.073Z,8.68
2022-09-20T17:06:48.788Z,7.25
2022-09-20T17:09:17.508Z,8.10
2022-09-20T17:11:48.187Z,9.00
2022-09-20T17:14:18.634Z,8.55
2022-09-20T17:16:48.086Z,10.00
2022-09-20T17:19:18.775Z,9.55
2022-09-20T17:21:49.323Z,7.20
2022-09-20T17:24:21.967Z,8.77
2022-09-20T17:26:51.312Z,9.45
2022-09-20T17:29:20.710Z,10.15
2022-09-20T17:31:54.991Z,11.07
2022-09-20T17:34:24.316Z,12.02
2022-09-20T17:36:52.964Z,10.23
2022-09-20T17:39:21.220Z,9.60
2022-09-20T17:41:50.566Z,9.52
2022-09-20T17:44:18.807Z,10.82
2022-09-20T17:46:48.945Z,8.93
2022-09-20T17:49:22.505Z,7.35
2022-09-20T17:51:53.451Z,8.18
2022-09-20T17:54:23.219Z,9.25
2022-09-20T17:56:53.596Z,10.50
2022-09-20T17:59:21.998Z,11.48
2022-09-20T18:01:51.874Z,10.27
2022-09-20T18:04:20.391Z,13.73
2022-09-20T18:06:50.772Z,12.95
2022-09-20T18:09:21.706Z,10.70
2022-09-20T18:11:54.369Z,9.65
2022-09-20T18:14:24.877Z,12.10
2022-09-20T18:16:54.641Z,12.63
2022-09-20T18:19:22.984Z,13.85
2022-09-20T18:21:51.667Z,14.38
2022-09-20T18:24:20.006Z,12.35
2022-09-20T18:26:48.208Z,11.77
2022-09-20T18:29:17.423Z,10.82
2022-09-20T18:31:51.366Z,10.82
2022-09-20T18:34:22.030Z,11.27
2022-09-20T18:36:58.297Z,12.00
2022-09-20T18:39:31.775Z,15.85
2022-09-20T18:42:00.393Z,14.15
2022-09-20T18:44:28.672Z,12.75
2022-09-20T18:46:56.895Z,16.10
2022-09-20T18:49:25.156Z,16.67
2022-09-20T18:51:53.222Z,17.45
2022-09-20T18:54:21.406Z,16.88
2022-09-20T18:56:51.465Z,20.80
2022-09-20T18:59:21.939Z,13.63
2022-09-20T19:01:53.005Z,15.32
2022-09-20T19:04:51.889Z,17.52
2022-09-20T19:07:29.184Z,19.08
2022-09-20T19:10:43.309Z,22.33
2022-09-20T19:13:33.829Z,19.85
2022-09-20T19:16:16.149Z,16.80
2022-09-20T19:21:59.420Z,15.50
2022-09-20T19:24:54.734Z,15.43
2022-09-20T19:27:23.245Z,24.38
2022-09-20T19:29:51.561Z,18.20
2022-09-20T19:32:20.283Z,28.52
2022-09-20T19:34:52.500Z,22.20
2022-09-20T19:37:33.675Z,23.52
2022-09-20T19:40:12.050Z,17.08
2022-09-20T19:42:40.360Z,17.63
2022-09-20T19:45:33.446Z,12.82
2022-09-20T19:48:07.433Z,11.93
2022-09-20T19:50:42.783Z,11.73
2022-09-20T19:53:11.544Z,11.35
2022-09-20T19:55:40.171Z,13.45
2022-09-20T19:58:12.826Z,11.63
2022-09-20T20:00:44.228Z,12.35
2022-09-20T20:03:16.734Z,11.02
2022-09-20T20:06:07.933Z,12.38
2022-09-20T20:08:51.307Z,12.23
2022-09-20T20:11:55.191Z,14.68
2022-09-20T20:14:53.814Z,17.67
2022-09-20T20:17:40.160Z,19.50
2022-09-20T20:20:27.516Z,15.35
2022-09-20T20:23:21.166Z,15.93
2022-09-20T20:26:02.585Z,16.10
2022-09-20T20:28:31.466Z,9.90
2022-09-20T20:31:01.597Z,11.40
2022-09-20T20:33:31.430Z,12.35
2022-09-20T20:36:04.278Z,18.95
2022-09-20T20:38:32.694Z,11.80
2022-09-20T20:41:12.954Z,17.80
2022-09-20T20:43:43.646Z,13.85
2022-09-20T20:46:14.269Z,10.68
2022-09-20T20:48:43.188Z,10.82
2022-09-20T20:51:13.535Z,12.25
2022-09-20T20:53:46.686Z,14.55
2022-09-20T20:56:21.018Z,13.65
2022-09-20T20:58:49.925Z,18.27
2022-09-20T21:01:20.682Z,10.63
2022-09-20T21:03:53.600Z,9.48
2022-09-20T21:06:23.803Z,10.43
2022-09-20T21:08:52.340Z,11.20
2022-09-20T21:11:22.986Z,12.02
2022-09-20T21:13:55.231Z,12.63
2022-09-20T21:16:32.530Z,12.70
2022-09-20T21:19:00.808Z,13.27
2022-09-20T21:21:36.384Z,14.30
2022-09-20T21:24:07.396Z,13.13
2022-09-20T21:26:37.233Z,14.18
2022-09-20T21:29:07.737Z,11.90
2022-09-20T21:31:38.736Z,12.90
2022-09-20T21:34:08.311Z,14.48
2022-09-20T21:36:38.662Z,15.25
2022-09-20T21:39:07.251Z,14.82
2022-09-20T21:41:38.005Z,12.73
2022-09-20T21:44:07.852Z,15.00
2022-09-20T21:46:38.436Z,17.50
2022-09-20T21:49:12.133Z,14.70
2022-09-20T21:51:42.350Z,12.23
2022-09-20T21:54:11.073Z,14.18
2022-09-20T21:56:40.816Z,12.55
2022-09-20T21:59:08.949Z,11.10
2022-09-20T22:01:39.537Z,11.48
2022-09-20T22:04:12.590Z,12.75
2022-09-20T22:06:43.268Z,14.43
2022-09-20T22:09:11.401Z,12.30
2022-09-20T22:11:44.924Z,12.95
2022-09-20T22:14:15.261Z,12.27
2022-09-20T22:16:45.374Z,13.05
2022-09-20T22:19:16.037Z,14.25
2022-09-20T22:21:46.546Z,16.20
2022-09-20T22:24:16.370Z,17.35
2022-09-20T22:26:47.000Z,15.55
2022-09-20T22:29:16.022Z,18.20
2022-09-20T22:31:46.472Z,14.43
2022-09-20T22:34:19.981Z,12.68
2022-09-20T22:36:48.327Z,13.73
2022-09-20T22:39:17.067Z,14.70
2022-09-20T22:41:46.389Z,14.80
2022-09-20T22:44:14.558Z,13.93
2022-09-20T22:46:42.700Z,12.00
2022-09-20T22:49:10.977Z,12.65
2022-09-20T22:51:39.622Z,14.10
2022-09-20T22:54:10.386Z,13.13
2022-09-20T22:56:39.826Z,11.50
2022-09-20T22:59:10.591Z,11.38
2022-09-20T23:01:41.676Z,13.32
2022-09-20T23:04:15.139Z,10.32
2022-09-20T23:06:48.783Z,11.77
2022-09-20T23:09:18.339Z,13.27
2022-09-20T23:11:47.337Z,11.90
2022-09-20T23:14:18.425Z,11.05
2022-09-20T23:16:47.585Z,10.13
2022-09-20T23:19:16.679Z,10.82
2022-09-20T23:21:45.907Z,10.05
2022-09-20T23:24:15.701Z,10.98
2022-09-20T23:26:44.943Z,11.20
2022-09-20T23:29:15.659Z,10.50
2022-09-20T23:31:46.762Z,12.65
2022-09-20T23:34:16.923Z,11.47
2022-09-20T23:36:46.165Z,9.57
2022-09-20T23:39:14.859Z,9.82
2022-09-20T23:41:46.976Z,10.13
2022-09-20T23:44:16.862Z,10.13
2022-09-20T23:46:45.169Z,9.45
2022-09-20T23:49:13.310Z,10.00
2022-09-20T23:51:41.602Z,10.77
2022-09-20T23:54:09.840Z,10.90
2022-09-20T23:56:38.027Z,10.77
2022-09-20T23:59:06.171Z,10.60
